createdAt,value
2017-12-01T00:01:17.030Z,54.90
2017-12-01T00:03:44.876Z,57.38
2017-12-01T00:06:12.721Z,59.10
2017-12-01T00:08:40.549Z,54.97
2017-12-01T00:11:08.379Z,59.83
2017-12-01T00:13:36.218Z,56.30
2017-12-01T00:16:04.077Z,51.47
2017-12-01T00:18:31.886Z,52.70
2017-12-01T00:20:59.754Z,60.60
2017-12-01T00:23:27.615Z,65.15
2017-12-01T00:25:55.477Z,64.35
2017-12-01T00:28:23.303Z,75.85
2017-12-01T00:30:51.134Z,72.43
2017-12-01T00:33:18.959Z,69.22
2017-12-01T00:35:46.863Z,71.75
2017-12-01T00:38:14.760Z,77.47
2017-12-01T00:40:42.599Z,71.82
2017-12-01T00:43:10.448Z,71.95
2017-12-01T00:45:38.308Z,78.37
2017-12-01T00:48:06.183Z,84.20
2017-12-01T00:50:34.040Z,88.18
2017-12-01T00:53:01.860Z,81.55
2017-12-01T00:55:29.680Z,86.85
2017-12-01T00:57:57.519Z,85.80
2017-12-01T01:00:25.311Z,81.25
2017-12-01T01:02:53.120Z,95.60
2017-12-01T01:05:20.944Z,92.72
2017-12-01T01:07:48.754Z,97.88
2017-12-01T01:10:16.572Z,93.60
2017-12-01T01:12:44.450Z,87.82
2017-12-01T01:15:12.256Z,112.60
2017-12-01T01:17:40.069Z,108.22
2017-12-01T01:20:07.896Z,97.75
2017-12-01T01:22:35.708Z,91.12
2017-12-01T01:25:03.524Z,92.43
2017-12-01T01:27:31.367Z,98.75
2017-12-01T01:29:59.194Z,114.05
2017-12-01T01:32:27.020Z,108.68
2017-12-01T01:34:54.827Z,92.65
2017-12-01T01:37:22.652Z,85.32
2017-12-01T01:39:50.484Z,101.25
2017-12-01T01:42:18.322Z,96.40
2017-12-01T01:44:46.164Z,93.30
2017-12-01T01:47:14.460Z,87.15
2017-12-01T01:49:42.308Z,93.43
2017-12-01T01:52:10.233Z,77.00
2017-12-01T01:54:38.040Z,83.80
2017-12-01T01:57:05.906Z,75.65
2017-12-01T01:59:33.706Z,94.20
2017-12-01T02:02:01.539Z,94.72
2017-12-01T02:04:29.337Z,92.62
2017-12-01T02:06:57.165Z,92.30
2017-12-01T02:09:25.013Z,103.65
2017-12-01T02:11:52.828Z,100.68
2017-12-01T02:14:20.672Z,104.87
2017-12-01T02:16:48.484Z,95.97
2017-12-01T02:19:16.316Z,89.68
2017-12-01T02:21:44.158Z,84.55
2017-12-01T02:24:11.988Z,76.85
2017-12-01T02:26:39.857Z,105.93
2017-12-01T02:29:07.729Z,85.75
2017-12-01T02:31:35.541Z,75.53
2017-12-01T02:34:03.386Z,81.37
2017-12-01T02:36:31.212Z,87.78
2017-12-01T02:38:59.040Z,93.68
2017-12-01T02:41:26.882Z,81.53
2017-12-01T02:43:54.720Z,82.45
2017-12-01T02:46:22.546Z,80.75
2017-12-01T02:48:50.400Z,100.70
2017-12-01T02:51:18.249Z,80.75
2017-12-01T02:53:46.103Z,83.03
2017-12-01T02:56:13.966Z,97.47
2017-12-01T02:58:42.810Z,90.15
2017-12-01T03:01:10.651Z,88.22
2017-12-01T03:03:38.497Z,83.72
2017-12-01T03:06:06.320Z,86.55
2017-12-01T03:08:34.188Z,85.28
2017-12-01T03:11:02.048Z,95.18
2017-12-01T03:13:29.876Z,97.90
2017-12-01T03:15:57.717Z,81.47
2017-12-01T03:18:25.591Z,80.38
2017-12-01T03:20:53.416Z,85.95
2017-12-01T03:23:21.261Z,91.43
2017-12-01T03:25:49.093Z,97.35
2017-12-01T03:28:16.917Z,90.55
2017-12-01T03:30:44.721Z,90.22
2017-12-01T03:33:12.544Z,86.82
2017-12-01T03:35:40.358Z,86.55
2017-12-01T03:38:08.173Z,96.80
2017-12-01T03:40:35.994Z,86.05
2017-12-01T03:43:03.800Z,84.28
2017-12-01T03:45:31.656Z,79.75
2017-12-01T03:47:59.506Z,83.55
2017-12-01T03:50:27.348Z,76.97
2017-12-01T03:52:55.195Z,91.78
2017-12-01T03:55:23.043Z,86.68
2017-12-01T03:57:50.892Z,81.30
2017-12-01T04:00:18.772Z,77.85
2017-12-01T04:02:46.654Z,84.87
2017-12-01T04:05:14.498Z,75.15
2017-12-01T04:07:42.319Z,72.87
2017-12-01T04:10:10.150Z,91.05
2017-12-01T04:12:37.988Z,80.85
2017-12-01T04:15:05.841Z,81.03
2017-12-01T04:17:33.679Z,76.57
2017-12-01T04:20:01.514Z,74.53
2017-12-01T04:22:29.360Z,61.53
2017-12-01T04:24:57.209Z,73.80
2017-12-01T04:27:25.029Z,72.10
2017-12-01T04:29:52.868Z,76.32
2017-12-01T04:32:20.700Z,95.90
2017-12-01T04:34:48.560Z,68.22
2017-12-01T04:37:16.387Z,89.60
2017-12-01T04:39:44.261Z,74.37
2017-12-01T04:42:12.099Z,72.35
2017-12-01T04:44:39.920Z,76.32
2017-12-01T04:47:07.752Z,75.35
2017-12-01T04:49:35.596Z,67.43
2017-12-01T04:52:03.440Z,71.37
2017-12-01T04:54:31.312Z,87.15
2017-12-01T04:56:59.181Z,73.72
2017-12-01T04:59:26.995Z,62.50
2017-12-01T05:01:54.842Z,61.33
2017-12-01T05:04:22.649Z,62.72
2017-12-01T05:06:50.476Z,65.22
2017-12-01T05:09:18.344Z,61.47
2017-12-01T05:11:46.168Z,64.30
2017-12-01T05:14:13.989Z,59.95
2017-12-01T05:16:41.835Z,64.47
2017-12-01T05:19:09.662Z,62.55
2017-12-01T05:21:37.525Z,65.65
2017-12-01T05:24:05.350Z,72.97
2017-12-01T05:26:33.173Z,53.97
2017-12-01T05:29:00.979Z,69.00
2017-12-01T05:31:28.805Z,59.53
2017-12-01T05:33:56.616Z,61.03
2017-12-01T05:36:24.444Z,63.60
2017-12-01T05:38:52.256Z,60.17
2017-12-01T05:41:20.070Z,59.97
2017-12-01T05:43:47.884Z,54.72
2017-12-01T05:46:15.697Z,58.80
2017-12-01T05:48:43.544Z,62.55
2017-12-01T05:51:11.361Z,58.08
2017-12-01T05:53:39.187Z,68.00
2017-12-01T05:56:07.020Z,59.13
2017-12-01T05:58:34.829Z,57.40
2017-12-01T06:01:02.640Z,53.47
2017-12-01T06:03:30.456Z,56.72
2017-12-01T06:05:58.299Z,52.67
2017-12-01T06:08:26.131Z,49.58
2017-12-01T06:10:53.952Z,63.75
2017-12-01T06:13:21.793Z,54.95
2017-12-01T06:15:49.628Z,50.80
2017-12-01T06:18:17.480Z,57.75
2017-12-01T06:20:45.296Z,52.20
2017-12-01T06:23:13.158Z,49.97
2017-12-01T06:25:40.972Z,50.92
2017-12-01T06:28:08.808Z,52.20
2017-12-01T06:30:36.694Z,52.10
2017-12-01T06:33:04.563Z,51.83
2017-12-01T06:35:32.395Z,49.63
2017-12-01T06:38:00.256Z,50.88
2017-12-01T06:40:28.081Z,52.75
2017-12-01T06:42:55.949Z,52.13
2017-12-01T06:45:23.792Z,50.95
2017-12-01T06:47:51.632Z,50.42
2017-12-01T06:50:19.524Z,58.63
2017-12-01T06:52:47.390Z,50.95
2017-12-01T06:55:15.219Z,52.05
2017-12-01T06:57:43.068Z,50.15
2017-12-01T07:00:11.009Z,54.25
2017-12-01T07:02:38.836Z,49.65
2017-12-01T07:05:06.716Z,48.92
2017-12-01T07:07:34.548Z,49.53
2017-12-01T07:10:02.420Z,52.90
2017-12-01T07:12:30.267Z,56.60
2017-12-01T07:14:58.142Z,48.08
2017-12-01T07:17:25.994Z,55.70
2017-12-01T07:19:53.831Z,49.97
2017-12-01T07:22:21.762Z,51.42
2017-12-01T07:24:49.593Z,55.95
2017-12-01T07:27:17.432Z,50.78
2017-12-01T07:29:45.296Z,54.08
2017-12-01T07:32:13.126Z,56.37
2017-12-01T07:34:40.974Z,55.75
2017-12-01T07:37:08.825Z,50.55
2017-12-01T07:39:36.759Z,56.00
2017-12-01T07:42:04.697Z,46.95
2017-12-01T07:44:38.588Z,51.15
2017-12-01T07:47:06.425Z,48.70
2017-12-01T07:49:34.369Z,46.00
2017-12-01T07:52:02.208Z,49.42
2017-12-01T07:54:30.336Z,57.40
2017-12-01T07:56:58.769Z,49.40
2017-12-01T07:59:26.675Z,52.20
2017-12-01T08:01:54.809Z,54.95
2017-12-01T08:04:22.675Z,49.25
2017-12-01T08:06:50.524Z,57.65
2017-12-01T08:09:18.447Z,52.80
2017-12-01T08:11:46.275Z,50.55
2017-12-01T08:14:14.181Z,46.20
2017-12-01T08:16:48.140Z,51.80
2017-12-01T08:19:19.862Z,49.67
2017-12-01T08:21:53.972Z,45.12
2017-12-01T08:24:27.869Z,50.45
2017-12-01T08:26:55.687Z,42.20
2017-12-01T08:29:23.573Z,46.22
2017-12-01T08:31:51.439Z,45.97
2017-12-01T08:34:19.296Z,44.13
2017-12-01T08:36:47.133Z,44.00
2017-12-01T08:39:15.878Z,45.25
2017-12-01T08:41:44.792Z,50.33
2017-12-01T08:44:12.633Z,51.60
2017-12-01T08:46:40.535Z,53.25
2017-12-01T08:49:08.408Z,45.75
2017-12-01T08:51:36.292Z,50.12
2017-12-01T08:54:04.192Z,44.13
2017-12-01T08:56:32.043Z,52.35
2017-12-01T08:58:59.864Z,58.15
2017-12-01T09:01:27.728Z,46.60
2017-12-01T09:03:55.596Z,60.05
2017-12-01T09:06:23.457Z,49.55
2017-12-01T09:08:51.314Z,51.20
2017-12-01T09:11:19.160Z,50.63
2017-12-01T09:13:47.052Z,54.58
2017-12-01T09:16:14.918Z,46.08
2017-12-01T09:18:42.775Z,44.47
2017-12-01T09:21:10.620Z,50.97
2017-12-01T09:23:38.472Z,44.00
2017-12-01T09:26:06.345Z,41.80
2017-12-01T09:28:34.209Z,44.65
2017-12-01T09:31:02.063Z,46.13
2017-12-01T09:33:29.904Z,45.22
2017-12-01T09:35:57.768Z,42.67
2017-12-01T09:38:25.605Z,46.67
2017-12-01T09:40:53.449Z,41.47
2017-12-01T09:43:21.293Z,57.42
2017-12-01T09:45:49.161Z,40.95
2017-12-01T09:48:17.021Z,41.58
2017-12-01T09:50:44.848Z,40.50
2017-12-01T09:53:12.700Z,44.58
2017-12-01T09:55:40.547Z,44.78
2017-12-01T09:58:08.390Z,52.22
2017-12-01T10:00:36.250Z,48.83
2017-12-01T10:03:04.092Z,51.60
2017-12-01T10:05:31.945Z,52.92
2017-12-01T10:08:00.157Z,43.70
2017-12-01T10:10:28.299Z,48.75
2017-12-01T10:12:56.217Z,63.30
2017-12-01T10:15:24.056Z,46.58
2017-12-01T10:17:51.872Z,49.58
2017-12-01T10:20:19.712Z,49.33
2017-12-01T10:22:47.581Z,46.70
2017-12-01T10:25:15.441Z,54.80
2017-12-01T10:27:43.278Z,44.78
2017-12-01T10:30:11.100Z,48.83
2017-12-01T10:32:38.956Z,48.75
2017-12-01T10:35:06.794Z,60.00
2017-12-01T10:37:34.621Z,47.53
2017-12-01T10:40:06.737Z,42.08
2017-12-01T10:42:34.578Z,51.70
2017-12-01T10:45:02.443Z,49.42
2017-12-01T10:47:30.311Z,46.28
2017-12-01T10:49:58.172Z,55.10
2017-12-01T10:52:26.012Z,49.05
2017-12-01T10:54:53.880Z,50.00
2017-12-01T10:57:21.741Z,45.00
2017-12-01T10:59:49.607Z,50.38
2017-12-01T11:02:17.453Z,44.83
2017-12-01T11:04:45.321Z,50.42
2017-12-01T11:07:13.172Z,58.25
2017-12-01T11:09:41.040Z,52.62
2017-12-01T11:12:08.895Z,43.80
2017-12-01T11:14:36.728Z,50.97
2017-12-01T11:17:04.581Z,49.55
2017-12-01T11:19:32.444Z,52.53
2017-12-01T11:22:00.297Z,47.53
2017-12-01T11:24:28.159Z,48.55
2017-12-01T11:26:56.002Z,42.58
2017-12-01T11:29:23.820Z,41.72
2017-12-01T11:31:51.676Z,47.67
2017-12-01T11:34:19.500Z,40.33
2017-12-01T11:36:47.325Z,49.97
2017-12-01T11:39:15.160Z,42.78
2017-12-01T11:41:43.039Z,40.45
2017-12-01T11:44:10.899Z,41.90
2017-12-01T11:46:38.801Z,42.58
2017-12-01T11:49:06.650Z,46.47
2017-12-01T11:51:35.340Z,40.80
2017-12-01T11:54:03.278Z,58.22
2017-12-01T11:56:31.210Z,58.55
2017-12-01T11:58:59.057Z,59.25
2017-12-01T12:01:26.913Z,46.90
2017-12-01T12:03:54.775Z,48.83
2017-12-01T12:06:22.646Z,55.53
2017-12-01T12:08:50.539Z,52.58
2017-12-01T12:11:18.410Z,56.55
2017-12-01T12:13:46.270Z,60.08
2017-12-01T12:16:14.160Z,60.30
2017-12-01T12:18:42.032Z,57.62
2017-12-01T12:21:09.864Z,48.13
2017-12-01T12:23:38.357Z,50.47
2017-12-01T12:26:06.200Z,45.42
2017-12-01T12:28:34.067Z,50.85
2017-12-01T12:31:01.930Z,50.50
2017-12-01T12:33:29.775Z,43.20
2017-12-01T12:35:57.628Z,44.70
2017-12-01T12:38:25.493Z,47.37
2017-12-01T12:40:53.334Z,40.53
2017-12-01T12:43:21.201Z,45.03
2017-12-01T12:45:49.060Z,41.15
2017-12-01T12:48:17.112Z,41.30
2017-12-01T12:50:45.005Z,41.60
2017-12-01T12:53:12.956Z,44.03
2017-12-01T12:55:40.881Z,54.85
2017-12-01T12:58:08.740Z,43.63
2017-12-01T13:00:36.613Z,41.33
2017-12-01T13:03:04.489Z,45.10
2017-12-01T13:05:32.311Z,46.60
2017-12-01T13:08:00.164Z,47.95
2017-12-01T13:10:28.070Z,58.95
2017-12-01T13:12:56.017Z,46.97
2017-12-01T13:15:23.868Z,49.92
2017-12-01T13:17:51.780Z,45.05
2017-12-01T13:20:19.601Z,43.70
2017-12-01T13:22:47.421Z,48.37
2017-12-01T13:25:15.276Z,42.00
2017-12-01T13:27:43.141Z,48.72
2017-12-01T13:30:11.005Z,50.77
2017-12-01T13:32:38.873Z,42.80
2017-12-01T13:35:06.735Z,42.10
2017-12-01T13:37:34.620Z,52.85
2017-12-01T13:40:02.483Z,46.05
2017-12-01T13:42:30.324Z,49.23
2017-12-01T13:44:58.186Z,42.83
2017-12-01T13:47:26.083Z,41.67
2017-12-01T13:49:53.920Z,46.30
2017-12-01T13:52:21.862Z,43.13
2017-12-01T13:54:49.705Z,44.57
2017-12-01T13:57:17.562Z,39.63
2017-12-01T13:59:45.429Z,48.40
2017-12-01T14:02:13.276Z,40.77
2017-12-01T14:04:41.132Z,39.13
2017-12-01T14:07:08.969Z,41.20
2017-12-01T14:09:36.848Z,46.07
2017-12-01T14:12:04.666Z,40.07
2017-12-01T14:14:32.525Z,39.80
2017-12-01T14:17:00.327Z,38.77
2017-12-01T14:19:28.253Z,37.60
2017-12-01T14:21:56.120Z,40.72
2017-12-01T14:24:23.942Z,33.93
2017-12-01T14:26:51.757Z,43.63
2017-12-01T14:29:19.599Z,39.03
2017-12-01T14:31:47.412Z,40.45
2017-12-01T14:34:15.283Z,35.63
2017-12-01T14:36:43.137Z,37.07
2017-12-01T14:39:10.988Z,39.83
2017-12-01T14:41:38.840Z,40.03
2017-12-01T14:44:06.680Z,39.63
2017-12-01T14:46:34.645Z,40.03
2017-12-01T14:49:02.472Z,39.03
2017-12-01T14:51:30.312Z,40.70
2017-12-01T14:53:58.198Z,47.95
2017-12-01T14:56:26.042Z,37.85
2017-12-01T14:58:53.868Z,37.43
2017-12-01T15:01:21.705Z,39.00
2017-12-01T15:03:49.572Z,42.50
2017-12-01T15:06:17.435Z,43.83
2017-12-01T15:08:45.312Z,37.13
2017-12-01T15:11:13.137Z,33.42
2017-12-01T15:13:40.975Z,37.33
2017-12-01T15:16:08.793Z,38.60
2017-12-01T15:18:36.602Z,38.70
2017-12-01T15:21:04.489Z,36.03
2017-12-01T15:23:32.325Z,41.25
2017-12-01T15:26:06.400Z,40.45
2017-12-01T15:28:34.232Z,36.70
2017-12-01T15:31:02.070Z,39.28
2017-12-01T15:33:29.977Z,38.73
2017-12-01T15:35:57.813Z,36.83
2017-12-01T15:38:26.306Z,38.57
2017-12-01T15:43:35.727Z,42.60
2017-12-01T15:46:03.583Z,42.38
2017-12-01T15:48:31.433Z,37.20
2017-12-01T15:50:59.263Z,39.60
2017-12-01T15:53:27.106Z,34.07
2017-12-01T15:55:55.007Z,39.73
2017-12-01T15:58:22.908Z,41.07
2017-12-01T16:00:50.789Z,36.10
2017-12-01T16:03:18.676Z,41.03
2017-12-01T16:05:46.491Z,45.87
2017-12-01T16:08:14.333Z,40.93
2017-12-01T16:10:42.176Z,39.13
2017-12-01T16:13:09.993Z,233.33
2017-12-01T16:15:37.833Z,80.90
2017-12-01T16:18:05.653Z,79.87
2017-12-01T16:20:33.465Z,55.50
2017-12-01T16:23:01.264Z,46.50
2017-12-01T16:25:29.072Z,38.07
2017-12-01T16:27:56.936Z,40.37
2017-12-01T16:30:24.791Z,38.47
2017-12-01T16:33:00.225Z,41.33
2017-12-01T16:35:20.461Z,45.17
2017-12-01T16:40:37.309Z,41.50
2017-12-01T16:43:05.137Z,45.90
2017-12-01T16:45:32.969Z,45.27
2017-12-01T16:48:06.798Z,40.80
2017-12-01T16:50:34.661Z,45.30
2017-12-01T16:53:02.553Z,43.65
2017-12-01T16:55:30.394Z,48.10
2017-12-01T16:58:04.895Z,43.03
2017-12-01T17:00:32.741Z,48.50
2017-12-01T17:03:00.628Z,46.93
2017-12-01T17:05:28.506Z,48.90
2017-12-01T17:07:56.365Z,42.07
2017-12-01T17:10:24.250Z,41.40
2017-12-01T17:12:52.115Z,65.27
2017-12-01T17:15:19.978Z,43.47
2017-12-01T17:17:47.811Z,43.73
2017-12-01T17:20:15.640Z,48.67
2017-12-01T17:22:43.510Z,50.97
2017-12-01T17:25:11.375Z,47.78
2017-12-01T17:27:39.258Z,46.33
2017-12-01T17:30:07.101Z,35.97
2017-12-01T17:32:34.977Z,38.30
2017-12-01T17:35:02.836Z,40.13
2017-12-01T17:37:30.688Z,39.53
2017-12-01T17:39:58.566Z,39.27
2017-12-01T17:42:26.418Z,45.45
2017-12-01T17:44:54.303Z,48.00
2017-12-01T17:47:28.892Z,51.53
2017-12-01T17:49:56.729Z,40.22
2017-12-01T17:52:24.602Z,48.45
2017-12-01T17:54:52.424Z,41.40
2017-12-01T18:00:16.997Z,49.08
2017-12-01T18:02:44.946Z,44.47
2017-12-01T18:05:12.862Z,50.63
2017-12-01T18:07:40.777Z,49.75
2017-12-01T18:10:08.670Z,51.65
2017-12-01T18:12:36.514Z,52.75
2017-12-01T18:15:04.357Z,56.88
2017-12-01T18:17:32.216Z,56.30
2017-12-01T18:20:00.088Z,61.83
2017-12-01T18:22:27.910Z,58.97
2017-12-01T18:24:55.738Z,51.65
2017-12-01T18:27:23.576Z,48.53
2017-12-01T18:29:51.470Z,54.85
2017-12-01T18:32:19.309Z,52.00
2017-12-01T18:34:47.140Z,53.47
2017-12-01T18:37:21.037Z,54.42
2017-12-01T18:39:49.003Z,55.12
2017-12-01T18:42:16.888Z,53.50
2017-12-01T18:44:44.745Z,59.38
2017-12-01T18:47:12.628Z,53.67
2017-12-01T18:49:40.585Z,56.80
2017-12-01T18:52:08.501Z,49.03
2017-12-01T18:54:36.413Z,50.58
2017-12-01T18:57:07.649Z,46.90
2017-12-01T18:59:35.531Z,46.60
2017-12-01T19:02:03.429Z,52.03
2017-12-01T19:04:31.314Z,49.03
2017-12-01T19:06:59.234Z,55.55
2017-12-01T19:09:27.110Z,51.27
2017-12-01T19:11:54.965Z,60.30
2017-12-01T19:14:22.808Z,53.85
2017-12-01T19:16:50.773Z,53.05
2017-12-01T19:19:18.670Z,58.87
2017-12-01T19:24:41.126Z,51.40
2017-12-01T19:27:09.008Z,49.40
2017-12-01T19:29:36.861Z,59.80
2017-12-01T19:32:04.727Z,51.58
2017-12-01T19:34:32.603Z,54.30
2017-12-01T19:37:00.490Z,52.88
2017-12-01T19:39:28.313Z,56.65
2017-12-01T19:41:56.340Z,59.20
2017-12-01T19:44:24.204Z,57.75
2017-12-01T19:46:52.267Z,59.38
2017-12-01T19:49:20.144Z,62.10
2017-12-01T19:51:47.996Z,56.47
2017-12-01T19:54:15.849Z,59.10
2017-12-01T19:56:43.873Z,66.80
2017-12-01T19:59:11.701Z,57.05
2017-12-01T20:04:33.878Z,62.80
2017-12-01T20:07:07.845Z,62.17
2017-12-01T20:09:36.758Z,55.35
2017-12-01T20:12:04.629Z,47.85
2017-12-01T20:14:32.586Z,56.08
2017-12-01T20:17:08.658Z,51.35
2017-12-01T20:19:36.504Z,71.80
2017-12-01T20:22:04.372Z,65.20
2017-12-01T20:24:32.240Z,65.50
2017-12-01T20:27:06.621Z,69.05
2017-12-01T20:29:34.452Z,66.05
2017-12-01T20:32:02.521Z,66.97
2017-12-01T20:34:30.464Z,70.93
2017-12-01T20:37:14.184Z,65.87
2017-12-01T20:39:42.057Z,68.85
2017-12-01T20:42:09.939Z,69.72
2017-12-01T20:44:37.811Z,62.65
2017-12-01T20:47:05.977Z,61.92
2017-12-01T20:49:33.886Z,63.40
2017-12-01T20:52:01.746Z,56.78
2017-12-01T20:54:29.601Z,58.40
2017-12-01T20:57:03.929Z,66.00
2017-12-01T20:59:31.822Z,55.90
2017-12-01T21:02:00.223Z,62.80
2017-12-01T21:04:28.089Z,65.60
2017-12-01T21:07:02.243Z,62.90
2017-12-01T21:09:30.131Z,63.83
2017-12-01T21:11:58.101Z,68.50
2017-12-01T21:14:26.024Z,66.87
2017-12-01T21:16:53.908Z,57.80
2017-12-01T21:19:21.802Z,60.47
2017-12-01T21:21:49.666Z,57.47
2017-12-01T21:24:19.261Z,72.10
2017-12-01T21:26:47.246Z,56.83
2017-12-01T21:29:15.187Z,54.65
2017-12-01T21:31:43.053Z,59.90
2017-12-01T21:34:11.012Z,58.05
2017-12-01T21:36:38.877Z,64.55
2017-12-01T21:39:06.724Z,53.15
2017-12-01T21:41:34.589Z,57.38
2017-12-01T21:44:02.442Z,62.42
2017-12-01T21:46:45.263Z,58.65
2017-12-01T21:49:13.101Z,55.67
2017-12-01T21:51:40.964Z,59.55
2017-12-01T21:54:08.816Z,53.60
2017-12-01T21:56:36.668Z,65.12
2017-12-01T21:59:04.508Z,58.83
2017-12-01T22:01:32.392Z,63.78
2017-12-01T22:04:00.232Z,57.28
2017-12-01T22:06:28.076Z,59.75
2017-12-01T22:08:55.888Z,61.20
2017-12-01T22:11:23.721Z,71.60
2017-12-01T22:13:51.592Z,72.50
2017-12-01T22:16:19.438Z,57.22
2017-12-01T22:21:42.409Z,67.10
2017-12-01T22:24:10.261Z,70.22
2017-12-01T22:26:44.737Z,65.37
2017-12-01T22:29:12.592Z,66.12
2017-12-01T22:31:40.500Z,77.95
2017-12-01T22:34:08.340Z,67.95
2017-12-01T22:36:36.156Z,69.65
2017-12-01T22:39:03.996Z,72.47
2017-12-01T22:41:31.885Z,65.53
2017-12-01T22:43:59.732Z,68.90
2017-12-01T22:46:27.593Z,63.65
2017-12-01T22:48:55.427Z,67.97
2017-12-01T22:51:24.051Z,66.72
2017-12-01T22:53:51.910Z,65.97
2017-12-01T22:56:19.770Z,67.45
2017-12-01T22:58:47.594Z,65.40
2017-12-01T23:01:15.428Z,63.60
2017-12-01T23:03:43.302Z,68.12
2017-12-01T23:06:11.175Z,63.53
2017-12-01T23:08:38.965Z,64.00
2017-12-01T23:11:06.889Z,62.67
2017-12-01T23:13:34.809Z,60.08
2017-12-01T23:16:02.643Z,69.72
2017-12-01T23:18:36.639Z,65.57
2017-12-01T23:21:04.483Z,65.90
2017-12-01T23:23:32.309Z,64.82
2017-12-01T23:26:00.169Z,66.72
2017-12-01T23:28:27.975Z,61.80
2017-12-01T23:30:55.906Z,72.35
2017-12-01T23:33:23.782Z,65.07
2017-12-01T23:35:51.638Z,65.20
2017-12-01T23:38:19.479Z,78.72
2017-12-01T23:40:47.288Z,67.87
2017-12-01T23:43:15.137Z,72.05
2017-12-01T23:45:43.000Z,64.28
2017-12-01T23:48:10.884Z,76.22
2017-12-01T23:50:38.714Z,78.22
2017-12-01T23:53:06.599Z,82.50
2017-12-01T23:55:34.472Z,68.50
2017-12-01T23:58:02.331Z,68.70
